createdAt,value
2018-07-21T00:01:02.995Z,99511.84
2018-07-21T00:03:30.668Z,99512.20
2018-07-21T00:05:58.280Z,99501.38
2018-07-21T00:08:25.896Z,99508.92
2018-07-21T00:10:53.479Z,99502.70
2018-07-21T00:13:21.133Z,99501.12
2018-07-21T00:15:48.745Z,99499.70
2018-07-21T00:18:16.389Z,99495.39
2018-07-21T00:20:43.957Z,99494.78
2018-07-21T00:23:11.587Z,99491.63
2018-07-21T00:25:39.344Z,99484.05
2018-07-21T00:28:06.946Z,99493.69
2018-07-21T00:30:34.534Z,99484.78
2018-07-21T00:33:02.163Z,99476.69
2018-07-21T00:35:29.767Z,99483.23
2018-07-21T00:37:57.398Z,99480.75
2018-07-21T00:40:24.988Z,99474.87
2018-07-21T00:42:52.628Z,99474.67
2018-07-21T00:45:20.628Z,99469.56
2018-07-21T00:47:48.216Z,99467.02
2018-07-21T00:50:15.818Z,99469.34
2018-07-21T00:52:43.474Z,99477.42
2018-07-21T00:55:11.072Z,99477.27
2018-07-21T01:00:13.063Z,99479.98
2018-07-21T01:02:40.649Z,99475.72
2018-07-21T01:05:08.338Z,99478.25
2018-07-21T01:07:36.037Z,99478.73
2018-07-21T01:10:05.326Z,99485.67
2018-07-21T01:12:32.954Z,99480.13
2018-07-21T01:15:00.630Z,99479.58
2018-07-21T01:17:28.292Z,99479.82
2018-07-21T01:19:56.567Z,99481.61
2018-07-21T01:22:24.204Z,99481.12
2018-07-21T01:24:51.844Z,99478.00
2018-07-21T01:27:19.489Z,99478.30
2018-07-21T01:29:47.036Z,99475.97
2018-07-21T01:32:15.788Z,99486.72
2018-07-21T01:34:43.430Z,99490.00
2018-07-21T01:37:11.002Z,99486.84
2018-07-21T01:39:38.620Z,99486.97
2018-07-21T01:42:06.239Z,99490.33
2018-07-21T01:44:33.871Z,99480.00
2018-07-21T01:47:01.502Z,99483.48
2018-07-21T01:49:29.085Z,99478.17
2018-07-21T01:51:56.646Z,99474.70
2018-07-21T01:54:24.222Z,99478.55
2018-07-21T01:56:51.793Z,99486.52
2018-07-21T01:59:20.345Z,99481.70
2018-07-21T02:01:47.945Z,99479.42
2018-07-21T02:04:15.545Z,99485.92
2018-07-21T02:06:43.149Z,99484.06
2018-07-21T02:09:11.087Z,99492.19
2018-07-21T02:11:38.897Z,99490.53
2018-07-21T02:14:06.723Z,99398.17
2018-07-21T02:16:34.393Z,99488.38
2018-07-21T02:19:02.180Z,99492.94
2018-07-21T02:21:29.743Z,99491.02
2018-07-21T02:23:57.311Z,99492.89
2018-07-21T02:26:24.916Z,99490.47
2018-07-21T02:28:52.580Z,99496.64
2018-07-21T02:31:20.220Z,99495.90
2018-07-21T02:33:47.839Z,99485.09
2018-07-21T02:36:15.419Z,99480.28
2018-07-21T02:38:42.968Z,99476.97
2018-07-21T02:41:10.533Z,99479.29
2018-07-21T02:43:38.173Z,99473.66
2018-07-21T02:46:05.896Z,99470.97
2018-07-21T02:48:33.627Z,99470.80
2018-07-21T02:51:01.312Z,99475.91
2018-07-21T02:53:28.919Z,99479.73
2018-07-21T02:55:56.613Z,99478.03
2018-07-21T02:58:24.229Z,99475.02
2018-07-21T03:00:51.878Z,99469.88
2018-07-21T03:03:19.510Z,99474.02
2018-07-21T03:05:47.148Z,99473.52
2018-07-21T03:08:14.795Z,99471.89
2018-07-21T03:10:42.387Z,99471.73
2018-07-21T03:13:09.995Z,99466.72
2018-07-21T03:15:37.615Z,99470.53
2018-07-21T03:18:05.267Z,99472.36
2018-07-21T03:20:32.855Z,99469.05
2018-07-21T03:23:00.474Z,99475.30
2018-07-21T03:25:28.121Z,99470.00
2018-07-21T03:27:55.702Z,99471.78
2018-07-21T03:30:23.344Z,99466.11
2018-07-21T03:32:50.995Z,99459.18
2018-07-21T03:35:18.581Z,99453.41
2018-07-21T03:37:46.201Z,99443.63
2018-07-21T03:40:13.858Z,99439.19
2018-07-21T03:42:41.570Z,99454.61
2018-07-21T03:45:09.239Z,99453.95
2018-07-21T03:47:36.905Z,99456.41
2018-07-21T03:50:04.653Z,99450.88
2018-07-21T03:52:32.366Z,99450.75
2018-07-21T03:55:00.055Z,99445.39
2018-07-21T03:57:27.757Z,99446.41
2018-07-21T03:59:55.470Z,99442.23
2018-07-21T04:02:24.002Z,99440.73
2018-07-21T04:04:51.593Z,99438.91
2018-07-21T04:07:19.195Z,99436.08
2018-07-21T04:09:46.788Z,99436.59
2018-07-21T04:12:14.477Z,99433.77
2018-07-21T04:14:43.290Z,99433.72
2018-07-21T04:17:17.718Z,99438.19
2018-07-21T04:19:45.399Z,99436.91
2018-07-21T04:22:13.025Z,99429.55
2018-07-21T04:24:40.709Z,99430.55
2018-07-21T04:27:08.359Z,99429.37
2018-07-21T04:29:35.972Z,99424.78
2018-07-21T04:32:03.675Z,99422.60
2018-07-21T04:34:31.297Z,99428.02
2018-07-21T04:36:58.953Z,99426.40
2018-07-21T04:39:26.601Z,99426.99
2018-07-21T04:41:54.333Z,99423.89
2018-07-21T04:44:22.353Z,99424.95
2018-07-21T04:46:49.991Z,99434.78
2018-07-21T04:49:17.597Z,99430.30
2018-07-21T04:51:45.320Z,99430.27
2018-07-21T04:54:12.910Z,99425.40
2018-07-21T04:56:40.561Z,99429.73
2018-07-21T04:59:08.170Z,99430.80
2018-07-21T05:01:35.807Z,99435.30
2018-07-21T05:04:03.358Z,99436.98
2018-07-21T05:06:31.037Z,99434.39
2018-07-21T05:08:58.669Z,99427.83
2018-07-21T05:11:26.328Z,99423.16
2018-07-21T05:13:53.917Z,99424.63
2018-07-21T05:16:21.634Z,99432.41
2018-07-21T05:18:49.245Z,99431.44
2018-07-21T05:21:16.857Z,99433.12
2018-07-21T05:23:44.485Z,99432.36
2018-07-21T05:26:12.115Z,99440.03
2018-07-21T05:28:39.747Z,99438.89
2018-07-21T05:31:07.736Z,99436.84
2018-07-21T05:33:35.464Z,99444.28
2018-07-21T05:36:03.141Z,99435.45
2018-07-21T05:38:30.730Z,99430.55
2018-07-21T05:40:58.334Z,99433.65
2018-07-21T05:43:26.040Z,99434.55
2018-07-21T05:45:53.702Z,99427.34
2018-07-21T05:48:21.350Z,99432.02
2018-07-21T05:50:49.030Z,99429.84
2018-07-21T05:53:16.702Z,99425.70
2018-07-21T05:55:44.434Z,99426.05
2018-07-21T05:58:12.058Z,99420.98
2018-07-21T06:00:39.676Z,99425.95
2018-07-21T06:03:07.444Z,99429.28
2018-07-21T06:05:34.956Z,99426.16
2018-07-21T06:08:02.728Z,99428.12
2018-07-21T06:10:30.382Z,99433.16
2018-07-21T06:12:57.988Z,99429.93
2018-07-21T06:15:25.682Z,99435.70
2018-07-21T06:17:53.300Z,99433.77
2018-07-21T06:20:20.921Z,99435.56
2018-07-21T06:22:48.597Z,99443.39
2018-07-21T06:25:16.379Z,99440.27
2018-07-21T06:27:44.054Z,99442.66
2018-07-21T06:30:11.738Z,99443.77
2018-07-21T06:32:39.515Z,99441.83
2018-07-21T06:35:07.354Z,99441.06
2018-07-21T06:37:35.130Z,99435.22
2018-07-21T06:40:02.962Z,99434.92
2018-07-21T06:42:30.617Z,99433.77
2018-07-21T06:44:58.281Z,99433.83
2018-07-21T06:47:26.218Z,99421.90
2018-07-21T06:49:53.828Z,99431.72
2018-07-21T06:52:22.491Z,99427.08
2018-07-21T06:54:50.301Z,99427.47
2018-07-21T06:57:18.809Z,99425.86
2018-07-21T06:59:46.453Z,99424.66
2018-07-21T07:02:14.390Z,99425.34
2018-07-21T07:04:42.817Z,99422.92
2018-07-21T07:07:10.724Z,99427.88
2018-07-21T07:09:38.384Z,99433.62
2018-07-21T07:12:06.072Z,99443.22
2018-07-21T07:14:33.752Z,99439.33
2018-07-21T07:17:01.426Z,99441.08
2018-07-21T07:19:29.086Z,99443.45
2018-07-21T07:21:56.796Z,99444.02
2018-07-21T07:24:24.522Z,99443.59
2018-07-21T07:26:52.222Z,99440.12
2018-07-21T07:29:20.167Z,99439.09
2018-07-21T07:31:47.865Z,99442.27
2018-07-21T07:34:15.512Z,99440.91
2018-07-21T07:36:43.188Z,99445.97
2018-07-21T07:39:10.998Z,99439.55
2018-07-21T07:41:38.998Z,99437.14
2018-07-21T07:44:06.725Z,99431.67
2018-07-21T07:46:34.666Z,99432.31
2018-07-21T07:49:02.315Z,99436.14
2018-07-21T07:51:30.210Z,99431.69
2018-07-21T07:53:57.948Z,99434.32
2018-07-21T07:56:25.743Z,99429.59
2018-07-21T07:58:53.385Z,99433.64
2018-07-21T08:01:21.208Z,99439.39
2018-07-21T08:03:48.963Z,99436.61
2018-07-21T08:06:16.687Z,99432.47
2018-07-21T08:08:44.339Z,99436.73
2018-07-21T08:11:12.059Z,99444.45
2018-07-21T08:13:39.712Z,99444.33
2018-07-21T08:16:07.363Z,99436.22
2018-07-21T08:18:35.054Z,99442.45
2018-07-21T08:21:02.658Z,99440.84
2018-07-21T08:23:30.326Z,99431.16
2018-07-21T08:25:58.002Z,99434.52
2018-07-21T08:28:25.670Z,99431.31
2018-07-21T08:30:53.348Z,99439.02
2018-07-21T08:33:21.046Z,99428.28
2018-07-21T08:35:48.634Z,99423.13
2018-07-21T08:38:16.258Z,99427.83
2018-07-21T08:40:43.879Z,99426.52
2018-07-21T08:43:11.503Z,99430.69
2018-07-21T08:45:39.131Z,99426.42
2018-07-21T08:48:06.814Z,99422.36
2018-07-21T08:50:34.674Z,99417.37
2018-07-21T08:53:02.304Z,99420.70
2018-07-21T08:55:29.982Z,99424.09
2018-07-21T08:57:57.792Z,99417.46
2018-07-21T09:00:25.489Z,99423.68
2018-07-21T09:02:53.651Z,99417.23
2018-07-21T09:05:21.329Z,99421.01
2018-07-21T09:07:48.939Z,99421.13
2018-07-21T09:10:16.537Z,99426.59
2018-07-21T09:12:44.205Z,99424.38
2018-07-21T09:15:11.921Z,99424.94
2018-07-21T09:17:39.783Z,99423.59
2018-07-21T09:20:07.395Z,99415.73
2018-07-21T09:22:35.052Z,99419.55
2018-07-21T09:25:02.765Z,99427.42
2018-07-21T09:27:30.398Z,99425.28
2018-07-21T09:29:57.944Z,99418.48
2018-07-21T09:32:25.632Z,99413.06
2018-07-21T09:34:53.236Z,99418.16
2018-07-21T09:37:20.878Z,99414.13
2018-07-21T09:39:48.616Z,99407.06
2018-07-21T09:42:16.243Z,99411.38
2018-07-21T09:44:43.950Z,99409.53
2018-07-21T09:47:11.549Z,99400.55
2018-07-21T09:49:39.232Z,99409.52
2018-07-21T09:52:06.903Z,99405.73
2018-07-21T09:54:34.719Z,99404.08
2018-07-21T09:57:02.387Z,99404.64
2018-07-21T09:59:30.041Z,99403.24
2018-07-21T10:01:57.663Z,99404.30
2018-07-21T10:04:25.314Z,99400.44
2018-07-21T10:06:52.923Z,99394.89
2018-07-21T10:09:20.581Z,99390.20
2018-07-21T10:11:48.278Z,99395.91
2018-07-21T10:14:15.936Z,99393.47
2018-07-21T10:16:43.565Z,99390.63
2018-07-21T10:19:11.248Z,99402.09
2018-07-21T10:21:38.922Z,99392.08
2018-07-21T10:24:12.525Z,99390.23
2018-07-21T10:26:46.038Z,99392.17
2018-07-21T10:29:14.138Z,99404.46
2018-07-21T10:31:42.994Z,99398.17
2018-07-21T10:34:11.205Z,99399.21
2018-07-21T10:36:39.562Z,99395.42
2018-07-21T10:39:10.601Z,99387.15
2018-07-21T10:41:38.231Z,99387.98
2018-07-21T10:44:05.970Z,99389.11
2018-07-21T10:46:34.030Z,99379.85
2018-07-21T10:49:01.666Z,99381.55
2018-07-21T10:51:29.313Z,99371.30
2018-07-21T10:53:56.990Z,99374.61
2018-07-21T10:56:24.694Z,99371.64
2018-07-21T10:58:52.350Z,99371.16
2018-07-21T11:01:20.090Z,99362.31
2018-07-21T11:03:47.778Z,99361.45
2018-07-21T11:06:15.629Z,99361.80
2018-07-21T11:08:43.416Z,99358.31
2018-07-21T11:11:11.207Z,99358.11
2018-07-21T11:13:38.991Z,99352.72
2018-07-21T11:16:06.998Z,99349.45
2018-07-21T11:18:34.752Z,99352.13
2018-07-21T11:21:02.495Z,99354.66
2018-07-21T11:23:30.392Z,99351.48
2018-07-21T11:25:58.133Z,99344.59
2018-07-21T11:28:25.860Z,99353.59
2018-07-21T11:30:53.515Z,99347.34
2018-07-21T11:33:21.377Z,99344.50
2018-07-21T11:35:49.317Z,99331.33
2018-07-21T11:38:16.794Z,99330.45
2018-07-21T11:40:44.499Z,99329.17
2018-07-21T11:43:12.294Z,99330.78
2018-07-21T11:45:40.021Z,99330.31
2018-07-21T11:48:07.688Z,99323.28
2018-07-21T11:50:35.396Z,99329.11
2018-07-21T11:53:03.110Z,99327.84
2018-07-21T11:55:30.808Z,99331.82
2018-07-21T11:57:58.530Z,99327.80
2018-07-21T12:00:26.755Z,99312.23
2018-07-21T12:02:54.492Z,99312.88
2018-07-21T12:05:22.240Z,99318.66
2018-07-21T12:07:49.799Z,99314.85
2018-07-21T12:10:17.546Z,99313.81
2018-07-21T12:12:45.190Z,99318.67
2018-07-21T12:15:12.947Z,99322.97
2018-07-21T12:17:40.891Z,99316.94
2018-07-21T12:20:08.608Z,99318.02
2018-07-21T12:22:36.368Z,99310.91
2018-07-21T12:25:04.243Z,99307.56
2018-07-21T12:27:31.887Z,99301.52
2018-07-21T12:29:59.607Z,99292.45
2018-07-21T12:32:27.277Z,99310.45
2018-07-21T12:34:54.951Z,99299.59
2018-07-21T12:37:22.673Z,99303.64
2018-07-21T12:39:50.455Z,99306.05
2018-07-21T12:42:18.127Z,99301.54
2018-07-21T12:44:45.841Z,99298.47
2018-07-21T12:47:13.493Z,99286.88
2018-07-21T12:49:41.850Z,99286.01
2018-07-21T12:52:09.795Z,99281.74
2018-07-21T12:54:37.463Z,99283.36
2018-07-21T12:57:05.535Z,99277.15
2018-07-21T12:59:33.579Z,99274.42
2018-07-21T13:02:01.300Z,99269.07
2018-07-21T13:04:29.719Z,99282.88
2018-07-21T13:06:57.463Z,99280.08
2018-07-21T13:09:25.100Z,99278.57
2018-07-21T13:11:52.819Z,99279.06
2018-07-21T13:14:20.460Z,99271.81
2018-07-21T13:16:48.112Z,99274.03
2018-07-21T13:19:15.846Z,99268.19
2018-07-21T13:21:43.529Z,99272.88
2018-07-21T13:24:11.202Z,99267.22
2018-07-21T13:26:38.901Z,99265.81
2018-07-21T13:29:06.654Z,99272.78
2018-07-21T13:31:34.314Z,99258.61
2018-07-21T13:34:02.711Z,99261.00
2018-07-21T13:36:30.421Z,99261.47
2018-07-21T13:38:58.095Z,99263.47
2018-07-21T13:41:25.725Z,99255.16
2018-07-21T13:43:53.397Z,99257.27
2018-07-21T13:46:21.129Z,99255.94
2018-07-21T13:48:48.785Z,99249.07
2018-07-21T13:51:16.430Z,99250.86
2018-07-21T13:53:44.155Z,99248.05
2018-07-21T13:56:11.826Z,99243.25
2018-07-21T13:58:39.566Z,99250.36
2018-07-21T14:01:07.915Z,99253.22
2018-07-21T14:03:35.568Z,99257.07
2018-07-21T14:06:03.207Z,99253.03
2018-07-21T14:08:30.897Z,99249.75
2018-07-21T14:10:58.553Z,99242.50
2018-07-21T14:13:26.210Z,99246.13
2018-07-21T14:15:54.019Z,99243.97
2018-07-21T14:18:21.776Z,99241.55
2018-07-21T14:20:49.426Z,99233.38
2018-07-21T14:23:17.058Z,99242.34
2018-07-21T14:25:44.715Z,99229.59
2018-07-21T14:28:12.670Z,99246.16
2018-07-21T14:30:40.409Z,99249.41
2018-07-21T14:33:08.163Z,99249.41
2018-07-21T14:35:35.858Z,99240.19
2018-07-21T14:38:03.555Z,99243.42
2018-07-21T14:40:31.188Z,99242.33
2018-07-21T14:42:58.847Z,99241.44
2018-07-21T14:45:26.483Z,99247.41
2018-07-21T14:47:54.185Z,99248.16
2018-07-21T14:50:21.837Z,99238.25
2018-07-21T14:52:49.518Z,99238.91
2018-07-21T14:55:17.188Z,99246.80
2018-07-21T14:57:45.219Z,99251.42
2018-07-21T15:00:13.117Z,99258.44
2018-07-21T15:02:40.788Z,99240.81
2018-07-21T15:05:08.771Z,99266.14
2018-07-21T15:07:36.869Z,99269.66
2018-07-21T15:10:04.610Z,99266.11
2018-07-21T15:12:32.272Z,99271.33
2018-07-21T15:15:00.914Z,99274.16
2018-07-21T15:17:28.618Z,99272.61
2018-07-21T15:19:56.314Z,99275.59
2018-07-21T15:22:24.027Z,99271.66
2018-07-21T15:24:51.677Z,99273.14
2018-07-21T15:27:19.293Z,99268.09
2018-07-21T15:29:47.968Z,99270.94
2018-07-21T15:32:15.733Z,99269.13
2018-07-21T15:34:43.514Z,99277.49
2018-07-21T15:37:11.223Z,99272.83
2018-07-21T15:39:38.928Z,99284.29
2018-07-21T15:42:06.696Z,99279.52
2018-07-21T15:44:34.448Z,99266.96
2018-07-21T15:47:02.284Z,99278.63
2018-07-21T15:49:29.990Z,99287.17
2018-07-21T15:51:57.665Z,99293.67
2018-07-21T15:54:25.379Z,99293.94
2018-07-21T15:56:54.134Z,99301.47
2018-07-21T15:59:22.093Z,99299.21
2018-07-21T16:01:49.710Z,99301.67
2018-07-21T16:04:17.400Z,99309.04
2018-07-21T16:06:45.196Z,99306.39
2018-07-21T16:09:12.838Z,99305.73
2018-07-21T16:11:40.716Z,99300.38
2018-07-21T16:14:08.513Z,99303.59
2018-07-21T16:16:36.161Z,99302.48
2018-07-21T16:19:04.231Z,99310.93
2018-07-21T16:21:31.953Z,99308.91
2018-07-21T16:23:59.670Z,99312.15
2018-07-21T16:26:27.291Z,99302.64
2018-07-21T16:28:54.941Z,99310.84
2018-07-21T16:31:22.691Z,99310.11
2018-07-21T16:33:50.395Z,99305.05
2018-07-21T16:36:18.292Z,99305.50
2018-07-21T16:38:46.169Z,99303.42
2018-07-21T16:41:13.902Z,99306.11
2018-07-21T16:43:41.595Z,99305.69
2018-07-21T16:46:09.281Z,99304.52
2018-07-21T16:48:36.988Z,99307.16
2018-07-21T16:51:05.436Z,99308.09
2018-07-21T16:53:33.167Z,99308.20
2018-07-21T16:56:00.840Z,99312.81
2018-07-21T16:58:28.444Z,99309.93
2018-07-21T17:00:56.174Z,99311.80
2018-07-21T17:03:24.698Z,99306.00
2018-07-21T17:05:52.343Z,99311.79
2018-07-21T17:08:20.063Z,99309.67
2018-07-21T17:10:47.750Z,99311.09
2018-07-21T17:13:15.686Z,99311.27
2018-07-21T17:15:43.353Z,99311.81
2018-07-21T17:18:11.070Z,99312.08
2018-07-21T17:20:38.775Z,99309.11
2018-07-21T17:23:06.485Z,99305.36
2018-07-21T17:25:34.256Z,99308.34
2018-07-21T17:28:02.279Z,99311.97
2018-07-21T17:30:30.353Z,99311.63
2018-07-21T17:32:58.021Z,99317.78
2018-07-21T17:35:25.623Z,99311.14
2018-07-21T17:37:53.330Z,99320.87
2018-07-21T17:40:21.005Z,99314.27
2018-07-21T17:42:48.811Z,99318.77
2018-07-21T17:45:16.718Z,99318.36
2018-07-21T17:47:44.424Z,99317.45
2018-07-21T17:50:12.194Z,99317.45
2018-07-21T17:52:40.759Z,99314.17
2018-07-21T17:55:08.616Z,99316.63
2018-07-21T17:57:36.400Z,99311.27
2018-07-21T18:00:04.923Z,99315.70
2018-07-21T18:02:33.504Z,99307.69
2018-07-21T18:05:01.184Z,99311.74
2018-07-21T18:07:28.858Z,99310.03
2018-07-21T18:09:56.615Z,99315.78
2018-07-21T18:12:24.302Z,99312.73
2018-07-21T18:14:51.939Z,99321.83
2018-07-21T18:17:19.682Z,99324.87
2018-07-21T18:19:47.400Z,99322.58
2018-07-21T18:22:15.580Z,99328.58
2018-07-21T18:24:43.266Z,99330.09
2018-07-21T18:27:10.941Z,99327.81
2018-07-21T18:29:38.709Z,99323.76
2018-07-21T18:32:06.377Z,99326.86
2018-07-21T18:34:34.125Z,99330.36
2018-07-21T18:37:01.899Z,99327.67
2018-07-21T18:39:29.614Z,99332.14
2018-07-21T18:41:57.467Z,99330.53
2018-07-21T18:44:25.154Z,99327.90
2018-07-21T18:46:52.871Z,99336.79
2018-07-21T18:49:20.518Z,99329.19
2018-07-21T18:51:48.203Z,99332.05
2018-07-21T18:54:15.995Z,99338.48
2018-07-21T18:56:43.765Z,99332.27
2018-07-21T18:59:11.517Z,99335.66
2018-07-21T19:01:39.386Z,99329.70
2018-07-21T19:04:07.188Z,99328.07
2018-07-21T19:06:34.971Z,99330.46
2018-07-21T19:09:04.991Z,99326.53
2018-07-21T19:11:32.988Z,99330.66
2018-07-21T19:14:00.625Z,99344.25
2018-07-21T19:16:34.160Z,99345.55
2018-07-21T19:19:01.906Z,99341.78
2018-07-21T19:21:29.734Z,99347.77
2018-07-21T19:23:57.659Z,99348.48
2018-07-21T19:27:28.698Z,99344.80
2018-07-21T19:29:57.410Z,99352.41
2018-07-21T19:32:30.861Z,99346.90
2018-07-21T19:34:58.764Z,99353.52
2018-07-21T19:37:32.286Z,99353.14
2018-07-21T19:40:00.153Z,99358.08
2018-07-21T19:42:28.031Z,99353.59
2018-07-21T19:44:55.878Z,99357.33
2018-07-21T19:47:23.697Z,99358.67
2018-07-21T19:49:53.507Z,99359.44
2018-07-21T19:52:21.558Z,99360.47
2018-07-21T19:54:49.434Z,99361.92
2018-07-21T19:57:27.646Z,99369.45
2018-07-21T19:59:55.377Z,99369.35
2018-07-21T20:02:23.244Z,99377.55
2018-07-21T20:04:51.122Z,99378.38
2018-07-21T20:07:18.995Z,99384.70
2018-07-21T20:09:47.079Z,99388.26
2018-07-21T20:12:14.969Z,99394.70
2018-07-21T20:14:42.791Z,99394.23
2018-07-21T20:17:11.686Z,99397.05
2018-07-21T20:19:39.763Z,99401.23
2018-07-21T20:22:08.079Z,99402.99
2018-07-21T20:24:36.249Z,99403.45
2018-07-21T20:27:04.011Z,99403.41
2018-07-21T20:29:31.867Z,99406.75
2018-07-21T20:31:59.628Z,99407.28
2018-07-21T20:34:27.431Z,99410.78
2018-07-21T20:36:55.189Z,99407.48
2018-07-21T20:39:23.167Z,99415.52
2018-07-21T20:41:50.988Z,99412.33
2018-07-21T20:44:18.779Z,99416.81
2018-07-21T20:46:46.527Z,99423.15
2018-07-21T20:49:14.405Z,99425.42
2018-07-21T20:51:42.306Z,99428.36
2018-07-21T20:54:10.162Z,99429.02
2018-07-21T20:56:38.077Z,99431.30
2018-07-21T20:59:05.853Z,99425.98
2018-07-21T21:01:33.660Z,99422.78
2018-07-21T21:04:01.459Z,99422.92
2018-07-21T21:06:29.382Z,99422.98
2018-07-21T21:08:57.122Z,99423.23
2018-07-21T21:11:24.921Z,99426.98
2018-07-21T21:13:52.724Z,99427.08
2018-07-21T21:16:20.506Z,99427.16
2018-07-21T21:18:48.346Z,99427.20
2018-07-21T21:21:16.378Z,99428.98
2018-07-21T21:23:44.165Z,99432.00
2018-07-21T21:26:12.082Z,99424.72
2018-07-21T21:28:39.806Z,99425.91
2018-07-21T21:31:07.518Z,99424.58
2018-07-21T21:33:35.245Z,99423.78
2018-07-21T21:36:03.108Z,99427.00
2018-07-21T21:38:30.847Z,99428.67
2018-07-21T21:40:58.565Z,99434.46
2018-07-21T21:43:26.291Z,99433.84
2018-07-21T21:45:54.033Z,99430.27
2018-07-21T21:48:21.790Z,99436.39
2018-07-21T21:50:58.046Z,99432.83
2018-07-21T21:53:25.909Z,99432.95
2018-07-21T21:55:53.668Z,99439.65
2018-07-21T21:58:21.408Z,99439.95
2018-07-21T22:01:08.143Z,99435.19
2018-07-21T22:03:35.897Z,99439.71
2018-07-21T22:06:03.829Z,99431.70
2018-07-21T22:08:32.269Z,99437.55
2018-07-21T22:11:00.401Z,99440.67
2018-07-21T22:13:28.697Z,99442.37
2018-07-21T22:15:57.155Z,99439.91
2018-07-21T22:18:25.177Z,99442.50
2018-07-21T22:20:52.897Z,99447.73
2018-07-21T22:23:20.634Z,99447.53
2018-07-21T22:25:48.325Z,99442.06
2018-07-21T22:28:17.055Z,99438.45
2018-07-21T22:30:44.695Z,99449.38
2018-07-21T22:33:12.341Z,99444.97
2018-07-21T22:35:39.967Z,99446.87
2018-07-21T22:38:07.703Z,99454.09
2018-07-21T22:40:35.422Z,99453.14
2018-07-21T22:43:03.217Z,99458.60
2018-07-21T22:45:31.028Z,99454.28
2018-07-21T22:47:58.673Z,99453.97
2018-07-21T22:50:26.362Z,99451.09
2018-07-21T22:52:54.218Z,99455.61
2018-07-21T22:55:21.902Z,99453.84
2018-07-21T22:57:49.524Z,99446.65
2018-07-21T23:00:17.274Z,99454.56
2018-07-21T23:02:45.019Z,99452.81
2018-07-21T23:05:12.730Z,99455.75
2018-07-21T23:07:40.367Z,99456.36
2018-07-21T23:10:08.091Z,99465.52
2018-07-21T23:12:36.342Z,99458.50
2018-07-21T23:15:05.098Z,99459.81
2018-07-21T23:17:32.745Z,99462.27
2018-07-21T23:20:00.443Z,99458.50
2018-07-21T23:22:28.083Z,99461.58
2018-07-21T23:24:55.835Z,99459.11
2018-07-21T23:27:23.519Z,99458.13
2018-07-21T23:29:51.189Z,99458.57
2018-07-21T23:32:18.776Z,99457.33
2018-07-21T23:34:46.455Z,99453.33
2018-07-21T23:37:14.122Z,99453.23
2018-07-21T23:39:41.758Z,99449.99
2018-07-21T23:42:09.440Z,99455.08
2018-07-21T23:44:37.128Z,99458.57
2018-07-21T23:47:04.838Z,99452.28
2018-07-21T23:49:32.581Z,99458.77
2018-07-21T23:52:00.230Z,99455.30
2018-07-21T23:54:27.923Z,99458.47
2018-07-21T23:56:55.573Z,99459.30
2018-07-21T23:59:23.241Z,99465.17
